sensor_id;sensor_type;location;lat;lon;timestamp;P1;durP1;ratioP1;P2;durP2;ratioP2
54454;SDS011;40364;52.270;10.546;2022-07-03T00:00:11;1.35;;;1.02;;
54454;SDS011;40364;52.270;10.546;2022-07-03T00:02:38;1.77;;;1.05;;
54454;SDS011;40364;52.270;10.546;2022-07-03T00:05:05;1.05;;;0.95;;
54454;SDS011;40364;52.270;10.546;2022-07-03T00:07:32;1.10;;;1.00;;
54454;SDS011;40364;52.270;10.546;2022-07-03T00:09:59;4.00;;;1.10;;
54454;SDS011;40364;52.270;10.546;2022-07-03T00:12:26;3.55;;;0.90;;
54454;SDS011;40364;52.270;10.546;2022-07-03T00:14:53;1.00;;;0.90;;
54454;SDS011;40364;52.270;10.546;2022-07-03T00:17:19;2.65;;;1.10;;
54454;SDS011;40364;52.270;10.546;2022-07-03T00:19:46;3.42;;;1.02;;
54454;SDS011;40364;52.270;10.546;2022-07-03T00:22:13;1.27;;;1.00;;
54454;SDS011;40364;52.270;10.546;2022-07-03T00:24:40;1.40;;;1.02;;
54454;SDS011;40364;52.270;10.546;2022-07-03T00:27:10;1.10;;;1.00;;
54454;SDS011;40364;52.270;10.546;2022-07-03T00:29:37;2.40;;;1.00;;
54454;SDS011;40364;52.270;10.546;2022-07-03T00:32:05;1.98;;;1.05;;
54454;SDS011;40364;52.270;10.546;2022-07-03T00:34:32;1.25;;;0.80;;
54454;SDS011;40364;52.270;10.546;2022-07-03T00:36:58;1.48;;;1.25;;
54454;SDS011;40364;52.270;10.546;2022-07-03T00:39:26;1.05;;;0.73;;
54454;SDS011;40364;52.270;10.546;2022-07-03T00:41:58;2.30;;;1.10;;
54454;SDS011;40364;52.270;10.546;2022-07-03T00:44:26;1.00;;;0.80;;
54454;SDS011;40364;52.270;10.546;2022-07-03T00:46:54;2.97;;;1.10;;
54454;SDS011;40364;52.270;10.546;2022-07-03T00:49:21;1.00;;;0.90;;
54454;SDS011;40364;52.270;10.546;2022-07-03T00:51:51;4.00;;;1.20;;
54454;SDS011;40364;52.270;10.546;2022-07-03T00:54:17;4.30;;;1.00;;
54454;SDS011;40364;52.270;10.546;2022-07-03T00:56:46;2.58;;;1.00;;
54454;SDS011;40364;52.270;10.546;2022-07-03T00:59:15;3.95;;;1.20;;
54454;SDS011;40364;52.270;10.546;2022-07-03T01:01:43;1.20;;;1.00;;
54454;SDS011;40364;52.270;10.546;2022-07-03T01:04:21;1.38;;;1.17;;
54454;SDS011;40364;52.270;10.546;2022-07-03T01:06:52;4.45;;;1.10;;
54454;SDS011;40364;52.270;10.546;2022-07-03T01:09:21;7.10;;;1.00;;
54454;SDS011;40364;52.270;10.546;2022-07-03T01:11:52;1.83;;;0.98;;
54454;SDS011;40364;52.270;10.546;2022-07-03T01:14:24;2.03;;;1.10;;
54454;SDS011;40364;52.270;10.546;2022-07-03T01:16:57;2.35;;;1.23;;
54454;SDS011;40364;52.270;10.546;2022-07-03T01:22:20;1.63;;;1.10;;
54454;SDS011;40364;52.270;10.546;2022-07-03T01:24:55;6.25;;;1.25;;
54454;SDS011;40364;52.270;10.546;2022-07-03T01:27:26;2.58;;;1.13;;
54454;SDS011;40364;52.270;10.546;2022-07-03T01:29:56;1.70;;;1.27;;
54454;SDS011;40364;52.270;10.546;2022-07-03T01:32:31;3.85;;;1.20;;
54454;SDS011;40364;52.270;10.546;2022-07-03T01:34:59;1.85;;;1.10;;
54454;SDS011;40364;52.270;10.546;2022-07-03T01:37:26;1.65;;;1.05;;
54454;SDS011;40364;52.270;10.546;2022-07-03T01:39:54;6.45;;;1.27;;
54454;SDS011;40364;52.270;10.546;2022-07-03T01:42:24;4.15;;;1.20;;
54454;SDS011;40364;52.270;10.546;2022-07-03T01:44:51;4.53;;;1.50;;
54454;SDS011;40364;52.270;10.546;2022-07-03T01:47:18;7.20;;;1.40;;
54454;SDS011;40364;52.270;10.546;2022-07-03T01:49:44;4.07;;;1.40;;
54454;SDS011;40364;52.270;10.546;2022-07-03T01:52:12;5.82;;;1.33;;
54454;SDS011;40364;52.270;10.546;2022-07-03T01:54:39;3.15;;;1.40;;
54454;SDS011;40364;52.270;10.546;2022-07-03T01:57:05;1.67;;;1.30;;
54454;SDS011;40364;52.270;10.546;2022-07-03T01:59:33;4.15;;;1.55;;
54454;SDS011;40364;52.270;10.546;2022-07-03T02:02:00;1.80;;;1.60;;
54454;SDS011;40364;52.270;10.546;2022-07-03T02:04:31;1.75;;;1.30;;
54454;SDS011;40364;52.270;10.546;2022-07-03T02:06:59;3.88;;;1.50;;
54454;SDS011;40364;52.270;10.546;2022-07-03T02:09:29;9.85;;;1.80;;
54454;SDS011;40364;52.270;10.546;2022-07-03T02:11:59;3.03;;;1.67;;
54454;SDS011;40364;52.270;10.546;2022-07-03T02:14:30;3.40;;;1.58;;
54454;SDS011;40364;52.270;10.546;2022-07-03T02:17:01;5.10;;;1.77;;
54454;SDS011;40364;52.270;10.546;2022-07-03T02:19:30;2.00;;;1.80;;
54454;SDS011;40364;52.270;10.546;2022-07-03T02:22:00;9.35;;;2.45;;
54454;SDS011;40364;52.270;10.546;2022-07-03T02:24:28;2.70;;;1.95;;
54454;SDS011;40364;52.270;10.546;2022-07-03T02:26:59;4.07;;;1.80;;
54454;SDS011;40364;52.270;10.546;2022-07-03T02:29:28;6.22;;;1.80;;
54454;SDS011;40364;52.270;10.546;2022-07-03T02:31:57;1.98;;;1.50;;
54454;SDS011;40364;52.270;10.546;2022-07-03T02:34:26;1.67;;;1.52;;
54454;SDS011;40364;52.270;10.546;2022-07-03T02:36:55;3.13;;;1.80;;
54454;SDS011;40364;52.270;10.546;2022-07-03T02:39:23;1.90;;;1.63;;
54454;SDS011;40364;52.270;10.546;2022-07-03T02:41:52;3.50;;;2.00;;
54454;SDS011;40364;52.270;10.546;2022-07-03T02:44:21;3.63;;;1.60;;
54454;SDS011;40364;52.270;10.546;2022-07-03T02:46:52;2.47;;;1.70;;
54454;SDS011;40364;52.270;10.546;2022-07-03T02:49:22;3.08;;;1.75;;
54454;SDS011;40364;52.270;10.546;2022-07-03T02:51:54;3.15;;;1.90;;
54454;SDS011;40364;52.270;10.546;2022-07-03T02:54:23;4.60;;;2.00;;
54454;SDS011;40364;52.270;10.546;2022-07-03T02:56:53;2.40;;;2.00;;
54454;SDS011;40364;52.270;10.546;2022-07-03T02:59:22;3.10;;;2.00;;
54454;SDS011;40364;52.270;10.546;2022-07-03T03:01:54;3.22;;;2.10;;
54454;SDS011;40364;52.270;10.546;2022-07-03T03:04:25;6.07;;;2.10;;
54454;SDS011;40364;52.270;10.546;2022-07-03T03:06:58;4.47;;;2.00;;
54454;SDS011;40364;52.270;10.546;2022-07-03T03:09:32;3.95;;;2.40;;
54454;SDS011;40364;52.270;10.546;2022-07-03T03:12:00;3.92;;;2.10;;
54454;SDS011;40364;52.270;10.546;2022-07-03T03:14:29;2.75;;;2.00;;
54454;SDS011;40364;52.270;10.546;2022-07-03T03:16:56;5.50;;;1.90;;
54454;SDS011;40364;52.270;10.546;2022-07-03T03:19:24;5.15;;;2.15;;
54454;SDS011;40364;52.270;10.546;2022-07-03T03:21:52;3.88;;;2.45;;
54454;SDS011;40364;52.270;10.546;2022-07-03T03:24:22;7.68;;;2.42;;
54454;SDS011;40364;52.270;10.546;2022-07-03T03:26:48;2.63;;;2.10;;
54454;SDS011;40364;52.270;10.546;2022-07-03T03:29:15;3.22;;;2.40;;
54454;SDS011;40364;52.270;10.546;2022-07-03T03:31:41;2.35;;;2.15;;
54454;SDS011;40364;52.270;10.546;2022-07-03T03:34:08;3.25;;;2.25;;
54454;SDS011;40364;52.270;10.546;2022-07-03T03:36:35;4.30;;;2.72;;
54454;SDS011;40364;52.270;10.546;2022-07-03T03:39:02;4.55;;;2.15;;
54454;SDS011;40364;52.270;10.546;2022-07-03T03:41:30;6.13;;;2.28;;
54454;SDS011;40364;52.270;10.546;2022-07-03T03:43:57;4.00;;;2.17;;
54454;SDS011;40364;52.270;10.546;2022-07-03T03:46:23;8.23;;;2.28;;
54454;SDS011;40364;52.270;10.546;2022-07-03T03:48:49;3.80;;;2.35;;
54454;SDS011;40364;52.270;10.546;2022-07-03T03:51:16;3.10;;;2.05;;
54454;SDS011;40364;52.270;10.546;2022-07-03T03:53:42;2.60;;;2.00;;
54454;SDS011;40364;52.270;10.546;2022-07-03T03:56:10;4.40;;;2.17;;
54454;SDS011;40364;52.270;10.546;2022-07-03T03:58:39;2.58;;;1.95;;
54454;SDS011;40364;52.270;10.546;2022-07-03T04:01:06;4.07;;;2.10;;
54454;SDS011;40364;52.270;10.546;2022-07-03T04:03:33;3.58;;;2.10;;
54454;SDS011;40364;52.270;10.546;2022-07-03T04:06:00;3.13;;;1.80;;
54454;SDS011;40364;52.270;10.546;2022-07-03T04:08:26;2.75;;;2.05;;
54454;SDS011;40364;52.270;10.546;2022-07-03T04:10:53;2.90;;;2.00;;
54454;SDS011;40364;52.270;10.546;2022-07-03T04:13:19;4.22;;;2.38;;
54454;SDS011;40364;52.270;10.546;2022-07-03T04:15:47;6.72;;;2.42;;
54454;SDS011;40364;52.270;10.546;2022-07-03T04:18:14;2.83;;;1.98;;
54454;SDS011;40364;52.270;10.546;2022-07-03T04:20:41;4.47;;;2.50;;
54454;SDS011;40364;52.270;10.546;2022-07-03T04:23:07;3.20;;;2.22;;
54454;SDS011;40364;52.270;10.546;2022-07-03T04:25:35;2.38;;;1.95;;
54454;SDS011;40364;52.270;10.546;2022-07-03T04:28:01;4.25;;;2.00;;
54454;SDS011;40364;52.270;10.546;2022-07-03T04:30:28;3.33;;;2.28;;
54454;SDS011;40364;52.270;10.546;2022-07-03T04:32:56;2.15;;;1.70;;
54454;SDS011;40364;52.270;10.546;2022-07-03T04:35:22;5.07;;;1.85;;
54454;SDS011;40364;52.270;10.546;2022-07-03T04:37:49;3.65;;;2.00;;
54454;SDS011;40364;52.270;10.546;2022-07-03T04:40:15;2.90;;;2.22;;
54454;SDS011;40364;52.270;10.546;2022-07-03T04:42:42;8.50;;;2.53;;
54454;SDS011;40364;52.270;10.546;2022-07-03T04:45:08;2.92;;;2.00;;
54454;SDS011;40364;52.270;10.546;2022-07-03T04:47:35;1.90;;;1.80;;
54454;SDS011;40364;52.270;10.546;2022-07-03T04:50:03;1.90;;;1.70;;
54454;SDS011;40364;52.270;10.546;2022-07-03T04:52:29;3.47;;;2.28;;
54454;SDS011;40364;52.270;10.546;2022-07-03T04:54:56;2.05;;;1.80;;
54454;SDS011;40364;52.270;10.546;2022-07-03T04:57:22;7.80;;;2.10;;
54454;SDS011;40364;52.270;10.546;2022-07-03T04:59:49;2.90;;;2.20;;
54454;SDS011;40364;52.270;10.546;2022-07-03T05:02:15;2.65;;;2.10;;
54454;SDS011;40364;52.270;10.546;2022-07-03T05:04:41;2.10;;;1.90;;
54454;SDS011;40364;52.270;10.546;2022-07-03T05:07:09;2.70;;;1.75;;
54454;SDS011;40364;52.270;10.546;2022-07-03T05:09:36;3.72;;;2.00;;
54454;SDS011;40364;52.270;10.546;2022-07-03T05:12:03;2.22;;;1.90;;
54454;SDS011;40364;52.270;10.546;2022-07-03T05:14:29;2.63;;;1.70;;
54454;SDS011;40364;52.270;10.546;2022-07-03T05:16:56;5.15;;;1.90;;
54454;SDS011;40364;52.270;10.546;2022-07-03T05:19:22;2.72;;;1.90;;
54454;SDS011;40364;52.270;10.546;2022-07-03T05:21:48;3.55;;;1.88;;
54454;SDS011;40364;52.270;10.546;2022-07-03T05:24:16;3.83;;;1.65;;
54454;SDS011;40364;52.270;10.546;2022-07-03T05:26:43;5.85;;;1.90;;
54454;SDS011;40364;52.270;10.546;2022-07-03T05:29:09;4.43;;;1.75;;
54454;SDS011;40364;52.270;10.546;2022-07-03T05:31:35;5.50;;;1.85;;
54454;SDS011;40364;52.270;10.546;2022-07-03T05:34:02;3.63;;;1.77;;
54454;SDS011;40364;52.270;10.546;2022-07-03T05:36:28;2.92;;;1.90;;
54454;SDS011;40364;52.270;10.546;2022-07-03T05:38:55;3.47;;;1.50;;
54454;SDS011;40364;52.270;10.546;2022-07-03T05:41:40;1.70;;;1.60;;
54454;SDS011;40364;52.270;10.546;2022-07-03T05:44:06;3.03;;;1.80;;
54454;SDS011;40364;52.270;10.546;2022-07-03T05:46:33;2.22;;;1.75;;
54454;SDS011;40364;52.270;10.546;2022-07-03T05:48:59;3.70;;;1.63;;
54454;SDS011;40364;52.270;10.546;2022-07-03T05:51:26;6.97;;;1.60;;
54454;SDS011;40364;52.270;10.546;2022-07-03T05:53:52;3.08;;;1.67;;
54454;SDS011;40364;52.270;10.546;2022-07-03T05:56:18;4.63;;;1.80;;
54454;SDS011;40364;52.270;10.546;2022-07-03T05:58:46;1.75;;;1.58;;
54454;SDS011;40364;52.270;10.546;2022-07-03T06:01:13;3.85;;;1.70;;
54454;SDS011;40364;52.270;10.546;2022-07-03T06:03:39;2.42;;;1.80;;
54454;SDS011;40364;52.270;10.546;2022-07-03T06:06:06;3.92;;;2.15;;
54454;SDS011;40364;52.270;10.546;2022-07-03T06:08:32;1.63;;;1.42;;
54454;SDS011;40364;52.270;10.546;2022-07-03T06:10:58;3.15;;;1.90;;
54454;SDS011;40364;52.270;10.546;2022-07-03T06:13:25;1.60;;;1.50;;
54454;SDS011;40364;52.270;10.546;2022-07-03T06:15:53;5.10;;;1.48;;
54454;SDS011;40364;52.270;10.546;2022-07-03T06:18:19;4.03;;;1.65;;
54454;SDS011;40364;52.270;10.546;2022-07-03T06:20:45;1.98;;;1.50;;
54454;SDS011;40364;52.270;10.546;2022-07-03T06:23:12;3.55;;;1.60;;
54454;SDS011;40364;52.270;10.546;2022-07-03T06:25:38;2.65;;;1.58;;
54454;SDS011;40364;52.270;10.546;2022-07-03T06:28:05;2.58;;;1.65;;
54454;SDS011;40364;52.270;10.546;2022-07-03T06:30:31;1.85;;;1.40;;
54454;SDS011;40364;52.270;10.546;2022-07-03T06:32:59;2.63;;;1.73;;
54454;SDS011;40364;52.270;10.546;2022-07-03T06:35:25;3.00;;;1.50;;
54454;SDS011;40364;52.270;10.546;2022-07-03T06:37:52;2.78;;;1.60;;
54454;SDS011;40364;52.270;10.546;2022-07-03T06:40:18;2.15;;;1.50;;
54454;SDS011;40364;52.270;10.546;2022-07-03T06:42:45;7.80;;;1.60;;
54454;SDS011;40364;52.270;10.546;2022-07-03T06:45:11;4.35;;;1.48;;
54454;SDS011;40364;52.270;10.546;2022-07-03T06:47:38;4.65;;;1.90;;
54454;SDS011;40364;52.270;10.546;2022-07-03T06:50:07;2.22;;;1.70;;
54454;SDS011;40364;52.270;10.546;2022-07-03T06:52:34;2.15;;;1.40;;
54454;SDS011;40364;52.270;10.546;2022-07-03T06:55:03;6.65;;;1.80;;
54454;SDS011;40364;52.270;10.546;2022-07-03T06:57:33;2.17;;;1.33;;
54454;SDS011;40364;52.270;10.546;2022-07-03T07:00:05;2.15;;;1.48;;
54454;SDS011;40364;52.270;10.546;2022-07-03T07:02:31;2.17;;;1.70;;
54454;SDS011;40364;52.270;10.546;2022-07-03T07:04:58;6.97;;;1.70;;
54454;SDS011;40364;52.270;10.546;2022-07-03T07:07:26;5.05;;;1.67;;
54454;SDS011;40364;52.270;10.546;2022-07-03T07:09:52;1.33;;;1.23;;
54454;SDS011;40364;52.270;10.546;2022-07-03T07:12:19;3.17;;;1.17;;
54454;SDS011;40364;52.270;10.546;2022-07-03T07:14:45;3.15;;;1.50;;
54454;SDS011;40364;52.270;10.546;2022-07-03T07:17:11;1.40;;;1.30;;
54454;SDS011;40364;52.270;10.546;2022-07-03T07:19:38;2.80;;;1.40;;
54454;SDS011;40364;52.270;10.546;2022-07-03T07:22:04;1.90;;;1.50;;
54454;SDS011;40364;52.270;10.546;2022-07-03T07:24:32;5.03;;;1.95;;
54454;SDS011;40364;52.270;10.546;2022-07-03T07:26:59;6.30;;;1.63;;
54454;SDS011;40364;52.270;10.546;2022-07-03T07:29:25;1.60;;;1.30;;
54454;SDS011;40364;52.270;10.546;2022-07-03T07:31:51;2.25;;;1.40;;
54454;SDS011;40364;52.270;10.546;2022-07-03T07:34:18;2.10;;;1.27;;
54454;SDS011;40364;52.270;10.546;2022-07-03T07:36:44;2.63;;;1.33;;
54454;SDS011;40364;52.270;10.546;2022-07-03T07:39:11;2.78;;;1.50;;
54454;SDS011;40364;52.270;10.546;2022-07-03T07:41:38;4.55;;;1.80;;
54454;SDS011;40364;52.270;10.546;2022-07-03T07:44:05;5.60;;;1.52;;
54454;SDS011;40364;52.270;10.546;2022-07-03T07:46:31;1.95;;;1.52;;
54454;SDS011;40364;52.270;10.546;2022-07-03T07:48:58;5.28;;;1.50;;
54454;SDS011;40364;52.270;10.546;2022-07-03T07:51:24;2.47;;;1.60;;
54454;SDS011;40364;52.270;10.546;2022-07-03T07:53:51;2.45;;;1.40;;
54454;SDS011;40364;52.270;10.546;2022-07-03T07:56:22;2.72;;;1.00;;
54454;SDS011;40364;52.270;10.546;2022-07-03T07:58:50;6.07;;;1.40;;
54454;SDS011;40364;52.270;10.546;2022-07-03T08:01:16;1.58;;;1.20;;
54454;SDS011;40364;52.270;10.546;2022-07-03T08:04:00;1.40;;;1.30;;
54454;SDS011;40364;52.270;10.546;2022-07-03T08:06:44;6.18;;;1.17;;
54454;SDS011;40364;52.270;10.546;2022-07-03T08:09:10;2.80;;;0.95;;
54454;SDS011;40364;52.270;10.546;2022-07-03T08:11:37;2.25;;;1.00;;
54454;SDS011;40364;52.270;10.546;2022-07-03T08:14:05;5.57;;;1.27;;
54454;SDS011;40364;52.270;10.546;2022-07-03T08:16:33;2.25;;;0.98;;
54454;SDS011;40364;52.270;10.546;2022-07-03T08:18:59;3.08;;;1.10;;
54454;SDS011;40364;52.270;10.546;2022-07-03T08:21:26;1.80;;;0.98;;
54454;SDS011;40364;52.270;10.546;2022-07-03T08:23:52;2.45;;;0.90;;
54454;SDS011;40364;52.270;10.546;2022-07-03T08:26:19;0.80;;;0.80;;
54454;SDS011;40364;52.270;10.546;2022-07-03T08:28:45;4.57;;;1.00;;
54454;SDS011;40364;52.270;10.546;2022-07-03T08:31:13;4.88;;;1.10;;
54454;SDS011;40364;52.270;10.546;2022-07-03T08:33:39;1.00;;;0.90;;
54454;SDS011;40364;52.270;10.546;2022-07-03T08:36:06;1.55;;;1.08;;
54454;SDS011;40364;52.270;10.546;2022-07-03T08:38:32;2.90;;;1.10;;
54454;SDS011;40364;52.270;10.546;2022-07-03T08:41:00;4.10;;;1.00;;
54454;SDS011;40364;52.270;10.546;2022-07-03T08:43:27;2.35;;;1.00;;
54454;SDS011;40364;52.270;10.546;2022-07-03T08:45:53;2.60;;;1.10;;
54454;SDS011;40364;52.270;10.546;2022-07-03T08:48:22;1.52;;;1.20;;
54454;SDS011;40364;52.270;10.546;2022-07-03T08:50:48;1.42;;;0.90;;
54454;SDS011;40364;52.270;10.546;2022-07-03T08:53:16;1.27;;;1.10;;
54454;SDS011;40364;52.270;10.546;2022-07-03T08:55:43;1.00;;;0.90;;
54454;SDS011;40364;52.270;10.546;2022-07-03T08:58:10;3.20;;;2.08;;
54454;SDS011;40364;52.270;10.546;2022-07-03T09:00:39;1.10;;;1.00;;
54454;SDS011;40364;52.270;10.546;2022-07-03T09:03:08;2.90;;;1.00;;
54454;SDS011;40364;52.270;10.546;2022-07-03T09:05:36;1.17;;;0.82;;
54454;SDS011;40364;52.270;10.546;2022-07-03T09:08:05;1.77;;;0.80;;
54454;SDS011;40364;52.270;10.546;2022-07-03T09:10:32;1.60;;;0.90;;
54454;SDS011;40364;52.270;10.546;2022-07-03T09:12:58;3.85;;;0.90;;
54454;SDS011;40364;52.270;10.546;2022-07-03T09:15:24;0.93;;;0.93;;
54454;SDS011;40364;52.270;10.546;2022-07-03T09:17:58;3.20;;;1.30;;
54454;SDS011;40364;52.270;10.546;2022-07-03T09:20:32;0.95;;;0.95;;
54454;SDS011;40364;52.270;10.546;2022-07-03T09:23:17;1.42;;;1.10;;
54454;SDS011;40364;52.270;10.546;2022-07-03T09:25:54;1.35;;;0.80;;
54454;SDS011;40364;52.270;10.546;2022-07-03T09:28:21;2.03;;;1.10;;
54454;SDS011;40364;52.270;10.546;2022-07-03T09:31:00;1.80;;;1.10;;
54454;SDS011;40364;52.270;10.546;2022-07-03T09:33:27;2.17;;;1.20;;
54454;SDS011;40364;52.270;10.546;2022-07-03T09:35:54;1.25;;;0.98;;
54454;SDS011;40364;52.270;10.546;2022-07-03T09:38:23;1.02;;;0.82;;
54454;SDS011;40364;52.270;10.546;2022-07-03T09:40:50;1.85;;;1.17;;
54454;SDS011;40364;52.270;10.546;2022-07-03T09:43:21;2.90;;;0.82;;
54454;SDS011;40364;52.270;10.546;2022-07-03T09:45:48;1.35;;;0.98;;
54454;SDS011;40364;52.270;10.546;2022-07-03T09:48:25;3.15;;;1.00;;
54454;SDS011;40364;52.270;10.546;2022-07-03T09:51:07;1.88;;;0.90;;
54454;SDS011;40364;52.270;10.546;2022-07-03T09:53:44;1.55;;;1.02;;
54454;SDS011;40364;52.270;10.546;2022-07-03T09:56:10;1.95;;;1.00;;
54454;SDS011;40364;52.270;10.546;2022-07-03T09:58:37;2.25;;;0.80;;
54454;SDS011;40364;52.270;10.546;2022-07-03T10:01:15;2.08;;;1.13;;
54454;SDS011;40364;52.270;10.546;2022-07-03T10:03:41;1.40;;;0.93;;
54454;SDS011;40364;52.270;10.546;2022-07-03T10:06:07;2.33;;;0.90;;
54454;SDS011;40364;52.270;10.546;2022-07-03T10:08:34;1.52;;;0.90;;
54454;SDS011;40364;52.270;10.546;2022-07-03T10:11:02;1.75;;;1.00;;
54454;SDS011;40364;52.270;10.546;2022-07-03T10:13:30;2.35;;;1.17;;
54454;SDS011;40364;52.270;10.546;2022-07-03T10:15:56;1.13;;;1.00;;
54454;SDS011;40364;52.270;10.546;2022-07-03T10:18:23;2.67;;;1.25;;
54454;SDS011;40364;52.270;10.546;2022-07-03T10:20:56;1.00;;;0.90;;
54454;SDS011;40364;52.270;10.546;2022-07-03T10:23:24;1.77;;;1.13;;
54454;SDS011;40364;52.270;10.546;2022-07-03T10:25:53;1.83;;;1.25;;
54454;SDS011;40364;52.270;10.546;2022-07-03T10:28:21;1.63;;;1.00;;
54454;SDS011;40364;52.270;10.546;2022-07-03T10:30:47;1.30;;;1.10;;
54454;SDS011;40364;52.270;10.546;2022-07-03T10:33:14;2.65;;;1.13;;
54454;SDS011;40364;52.270;10.546;2022-07-03T10:35:41;1.10;;;1.00;;
54454;SDS011;40364;52.270;10.546;2022-07-03T10:38:24;3.40;;;1.10;;
54454;SDS011;40364;52.270;10.546;2022-07-03T10:40:53;1.85;;;1.42;;
54454;SDS011;40364;52.270;10.546;2022-07-03T10:43:40;6.63;;;1.27;;
54454;SDS011;40364;52.270;10.546;2022-07-03T10:46:24;1.10;;;1.00;;
54454;SDS011;40364;52.270;10.546;2022-07-03T10:48:52;1.85;;;1.20;;
54454;SDS011;40364;52.270;10.546;2022-07-03T10:51:19;4.03;;;1.15;;
54454;SDS011;40364;52.270;10.546;2022-07-03T10:53:45;1.20;;;1.00;;
54454;SDS011;40364;52.270;10.546;2022-07-03T10:56:12;1.00;;;0.90;;
54454;SDS011;40364;52.270;10.546;2022-07-03T11:01:33;3.17;;;1.15;;
54454;SDS011;40364;52.270;10.546;2022-07-03T11:04:00;2.53;;;1.00;;
54454;SDS011;40364;52.270;10.546;2022-07-03T11:09:27;3.60;;;1.10;;
54454;SDS011;40364;52.270;10.546;2022-07-03T11:11:53;3.95;;;1.17;;
54454;SDS011;40364;52.270;10.546;2022-07-03T11:14:23;1.63;;;0.80;;
54454;SDS011;40364;52.270;10.546;2022-07-03T11:19:33;1.20;;;0.80;;
54454;SDS011;40364;52.270;10.546;2022-07-03T11:22:00;1.83;;;0.82;;
54454;SDS011;40364;52.270;10.546;2022-07-03T11:27:24;1.17;;;1.00;;
54454;SDS011;40364;52.270;10.546;2022-07-03T11:29:54;0.85;;;0.73;;
54454;SDS011;40364;52.270;10.546;2022-07-03T11:35:07;1.25;;;0.88;;
54454;SDS011;40364;52.270;10.546;2022-07-03T11:37:33;2.33;;;0.90;;
54454;SDS011;40364;52.270;10.546;2022-07-03T11:40:00;1.45;;;0.90;;
54454;SDS011;40364;52.270;10.546;2022-07-03T11:42:32;3.03;;;1.00;;
54454;SDS011;40364;52.270;10.546;2022-07-03T11:44:59;3.65;;;1.10;;
54454;SDS011;40364;52.270;10.546;2022-07-03T11:47:26;0.90;;;0.90;;
54454;SDS011;40364;52.270;10.546;2022-07-03T11:49:52;2.58;;;1.08;;
54454;SDS011;40364;52.270;10.546;2022-07-03T11:52:32;1.60;;;0.95;;
54454;SDS011;40364;52.270;10.546;2022-07-03T11:54:58;6.43;;;0.70;;
54454;SDS011;40364;52.270;10.546;2022-07-03T11:57:25;0.98;;;0.80;;
54454;SDS011;40364;52.270;10.546;2022-07-03T11:59:52;2.22;;;0.85;;
54454;SDS011;40364;52.270;10.546;2022-07-03T12:02:20;1.25;;;0.80;;
54454;SDS011;40364;52.270;10.546;2022-07-03T12:04:47;1.13;;;0.98;;
54454;SDS011;40364;52.270;10.546;2022-07-03T12:07:14;2.35;;;0.80;;
54454;SDS011;40364;52.270;10.546;2022-07-03T12:09:42;1.40;;;0.77;;
54454;SDS011;40364;52.270;10.546;2022-07-03T12:12:09;2.53;;;0.95;;
54454;SDS011;40364;52.270;10.546;2022-07-03T12:14:38;2.13;;;1.10;;
54454;SDS011;40364;52.270;10.546;2022-07-03T12:17:05;3.90;;;0.73;;
54454;SDS011;40364;52.270;10.546;2022-07-03T12:19:32;5.78;;;0.90;;
54454;SDS011;40364;52.270;10.546;2022-07-03T12:21:58;2.38;;;1.00;;
54454;SDS011;40364;52.270;10.546;2022-07-03T12:24:25;1.30;;;0.70;;
54454;SDS011;40364;52.270;10.546;2022-07-03T12:26:54;1.05;;;0.90;;
54454;SDS011;40364;52.270;10.546;2022-07-03T12:29:20;2.25;;;0.73;;
54454;SDS011;40364;52.270;10.546;2022-07-03T12:31:47;2.25;;;0.80;;
54454;SDS011;40364;52.270;10.546;2022-07-03T12:34:15;6.88;;;0.98;;
54454;SDS011;40364;52.270;10.546;2022-07-03T12:36:53;2.20;;;0.90;;
54454;SDS011;40364;52.270;10.546;2022-07-03T12:39:20;3.75;;;1.15;;
54454;SDS011;40364;52.270;10.546;2022-07-03T12:41:46;1.90;;;0.70;;
54454;SDS011;40364;52.270;10.546;2022-07-03T12:44:14;1.80;;;0.82;;
54454;SDS011;40364;52.270;10.546;2022-07-03T12:46:45;0.60;;;0.47;;
54454;SDS011;40364;52.270;10.546;2022-07-03T12:49:12;1.42;;;0.77;;
54454;SDS011;40364;52.270;10.546;2022-07-03T12:51:40;10.13;;;1.70;;
54454;SDS011;40364;52.270;10.546;2022-07-03T12:54:07;3.28;;;1.05;;
54454;SDS011;40364;52.270;10.546;2022-07-03T12:56:34;2.40;;;0.80;;
54454;SDS011;40364;52.270;10.546;2022-07-03T12:59:00;1.92;;;1.13;;
54454;SDS011;40364;52.270;10.546;2022-07-03T13:01:50;0.65;;;0.57;;
54454;SDS011;40364;52.270;10.546;2022-07-03T13:04:29;1.38;;;0.52;;
54454;SDS011;40364;52.270;10.546;2022-07-03T13:06:58;1.88;;;0.88;;
54454;SDS011;40364;52.270;10.546;2022-07-03T13:09:25;1.75;;;1.00;;
54454;SDS011;40364;52.270;10.546;2022-07-03T13:11:54;1.13;;;0.95;;
54454;SDS011;40364;52.270;10.546;2022-07-03T13:14:20;1.67;;;0.82;;
54454;SDS011;40364;52.270;10.546;2022-07-03T13:16:49;3.50;;;0.98;;
54454;SDS011;40364;52.270;10.546;2022-07-03T13:19:17;0.85;;;0.80;;
54454;SDS011;40364;52.270;10.546;2022-07-03T13:21:44;3.38;;;0.82;;
54454;SDS011;40364;52.270;10.546;2022-07-03T13:24:11;3.53;;;0.90;;
54454;SDS011;40364;52.270;10.546;2022-07-03T13:26:38;1.17;;;0.70;;
54454;SDS011;40364;52.270;10.546;2022-07-03T13:29:04;1.85;;;0.90;;
54454;SDS011;40364;52.270;10.546;2022-07-03T13:31:31;3.55;;;0.93;;
54454;SDS011;40364;52.270;10.546;2022-07-03T13:33:59;2.53;;;0.75;;
54454;SDS011;40364;52.270;10.546;2022-07-03T13:36:26;2.90;;;0.73;;
54454;SDS011;40364;52.270;10.546;2022-07-03T13:38:53;0.60;;;0.60;;
54454;SDS011;40364;52.270;10.546;2022-07-03T13:41:19;1.13;;;0.80;;
54454;SDS011;40364;52.270;10.546;2022-07-03T13:43:48;3.05;;;0.90;;
54454;SDS011;40364;52.270;10.546;2022-07-03T13:46:14;1.42;;;0.60;;
54454;SDS011;40364;52.270;10.546;2022-07-03T13:48:41;2.28;;;1.13;;
54454;SDS011;40364;52.270;10.546;2022-07-03T13:51:09;1.25;;;0.73;;
54454;SDS011;40364;52.270;10.546;2022-07-03T13:53:35;0.60;;;0.60;;
54454;SDS011;40364;52.270;10.546;2022-07-03T13:56:02;1.25;;;0.80;;
54454;SDS011;40364;52.270;10.546;2022-07-03T13:58:28;1.58;;;0.80;;
54454;SDS011;40364;52.270;10.546;2022-07-03T14:00:55;0.57;;;0.57;;
54454;SDS011;40364;52.270;10.546;2022-07-03T14:03:21;3.13;;;1.02;;
54454;SDS011;40364;52.270;10.546;2022-07-03T14:05:48;1.33;;;0.70;;
54454;SDS011;40364;52.270;10.546;2022-07-03T14:08:18;1.65;;;0.70;;
54454;SDS011;40364;52.270;10.546;2022-07-03T14:10:44;3.50;;;0.70;;
54454;SDS011;40364;52.270;10.546;2022-07-03T14:13:11;2.75;;;1.05;;
54454;SDS011;40364;52.270;10.546;2022-07-03T14:15:40;5.03;;;0.80;;
54454;SDS011;40364;52.270;10.546;2022-07-03T14:18:07;0.93;;;0.65;;
54454;SDS011;40364;52.270;10.546;2022-07-03T14:20:33;1.00;;;0.70;;
54454;SDS011;40364;52.270;10.546;2022-07-03T14:23:00;0.85;;;0.50;;
54454;SDS011;40364;52.270;10.546;2022-07-03T14:25:28;1.75;;;0.90;;
54454;SDS011;40364;52.270;10.546;2022-07-03T14:27:54;3.15;;;0.60;;
54454;SDS011;40364;52.270;10.546;2022-07-03T14:30:45;1.70;;;0.77;;
54454;SDS011;40364;52.270;10.546;2022-07-03T14:33:29;2.60;;;0.77;;
54454;SDS011;40364;52.270;10.546;2022-07-03T14:35:55;2.67;;;1.30;;
54454;SDS011;40364;52.270;10.546;2022-07-03T14:38:22;2.67;;;0.80;;
54454;SDS011;40364;52.270;10.546;2022-07-03T14:40:50;1.33;;;0.70;;
54454;SDS011;40364;52.270;10.546;2022-07-03T14:43:17;0.90;;;0.60;;
54454;SDS011;40364;52.270;10.546;2022-07-03T14:45:43;3.38;;;0.77;;
54454;SDS011;40364;52.270;10.546;2022-07-03T14:48:10;1.38;;;0.70;;
54454;SDS011;40364;52.270;10.546;2022-07-03T14:50:36;1.80;;;0.70;;
54454;SDS011;40364;52.270;10.546;2022-07-03T14:53:04;3.88;;;0.80;;
54454;SDS011;40364;52.270;10.546;2022-07-03T14:55:32;1.02;;;0.82;;